CheckWX is a tool to help pilots better visualize weather data.  It is not intended as a substitute for an official pre-flight weather briefing.

07:13:05 UTC

KMFD METAR
Mansfield Lahm Regional Airport
Mansfield, Ohio, USA
Current

21 mins ago

KMFD 230652Z AUTO 22015G19KT 10SM OVC070 25/14 A2993 RMK AO2 SLP124 T02500139
Observed
Sep-23 @ 06:52 UTC
Wind
  • 220° at 15 KTS
  • Gusting to 19 KTS
Visibility
10 SM
Flight Rules
VFR
Cloud Levels
  • Overcast at 7,000' AGL
Temperature
25°C / 77°F
Dewpoint
14°C / 57°F
Humidity
51%
Altimeter
29.93" Hg
Pressure
1013.52 hPa
Previous

1 hour ago

KMFD 230552Z AUTO 20015G21KT 10SM FEW070 24/14 A2993 RMK AO2 SLP124 T02440139 10256 20222 56010
Observed
Sep-23 @ 05:52 UTC
Wind
  • 200° at 15 KTS
  • Gusting to 21 KTS
Visibility
10 SM
Flight Rules
VFR
Cloud Levels
  • Few at 7,000' AGL
Temperature
24°C / 75°F
Dewpoint
14°C / 57°F
Humidity
54%
Altimeter
29.93" Hg
Pressure
1013.52 hPa
Previous

2 hours ago

KMFD 230452Z AUTO 20011KT 10SM CLR 23/14 A2994 RMK AO2 SLP127 T02330139 403110200
Observed
Sep-23 @ 04:52 UTC
Wind
  • 200° at 11 KTS
Visibility
10 SM
Flight Rules
VFR
Cloud Levels
  • Clear skies
Temperature
23°C / 73°F
Dewpoint
14°C / 57°F
Humidity
57%
Altimeter
29.94" Hg
Pressure
1013.92 hPa